createdAt,value
2019-05-26T00:00:03.127Z,15.63
2019-05-26T00:03:08.957Z,15.17
2019-05-26T00:06:14.350Z,15.17
2019-05-26T00:09:19.286Z,14.90
2019-05-26T00:12:24.028Z,14.90
2019-05-26T00:15:28.832Z,14.94
2019-05-26T00:18:33.704Z,14.80
2019-05-26T00:21:38.774Z,14.83
2019-05-26T00:24:43.520Z,14.99
2019-05-26T00:27:48.744Z,15.12
2019-05-26T00:30:53.809Z,15.12
2019-05-26T00:33:58.493Z,15.07
2019-05-26T00:37:03.314Z,15.10
2019-05-26T00:40:08.554Z,15.10
2019-05-26T00:43:13.365Z,15.14
2019-05-26T00:46:18.506Z,15.18
2019-05-26T00:49:23.315Z,15.09
2019-05-26T00:52:28.136Z,15.14
2019-05-26T00:55:33.635Z,15.14
2019-05-26T00:58:38.731Z,15.16
2019-05-26T01:01:43.494Z,15.04
2019-05-26T01:04:48.269Z,14.61
2019-05-26T01:08:05.877Z,14.61
2019-05-26T01:11:01.468Z,14.42
2019-05-26T01:14:06.267Z,14.31
2019-05-26T01:17:11.369Z,14.46
2019-05-26T01:20:16.718Z,14.46
2019-05-26T01:23:21.479Z,14.54
2019-05-26T01:26:27.271Z,14.50
2019-05-26T01:29:33.651Z,14.50
2019-05-26T01:32:38.481Z,14.52
2019-05-26T01:35:43.653Z,14.55
2019-05-26T01:38:49.360Z,14.51
2019-05-26T01:41:54.432Z,14.53
2019-05-26T01:44:59.428Z,14.55
2019-05-26T01:48:04.970Z,14.54
2019-05-26T01:51:09.805Z,14.42
2019-05-26T01:54:16.203Z,14.33
2019-05-26T01:57:21.619Z,14.13
2019-05-26T02:00:26.631Z,13.92
2019-05-26T02:03:31.366Z,13.92
2019-05-26T02:06:36.195Z,13.77
2019-05-26T02:09:41.561Z,13.73
2019-05-26T02:12:47.009Z,13.71
2019-05-26T02:15:51.837Z,13.67
2019-05-26T02:18:56.881Z,13.80
2019-05-26T02:22:01.903Z,13.87
2019-05-26T02:25:07.316Z,13.86
2019-05-26T02:28:12.161Z,13.80
2019-05-26T02:31:17.169Z,13.81
2019-05-26T02:34:21.903Z,13.89
2019-05-26T02:37:26.893Z,13.92
2019-05-26T02:40:31.783Z,13.95
2019-05-26T02:43:36.841Z,14.01
2019-05-26T02:46:41.679Z,14.02
2019-05-26T02:49:46.401Z,13.94
2019-05-26T02:52:52.245Z,13.87
2019-05-26T02:55:57.119Z,13.92
2019-05-26T02:59:02.215Z,13.85
2019-05-26T03:02:07.352Z,13.70
2019-05-26T03:05:12.971Z,13.55
2019-05-26T03:08:17.722Z,13.45
2019-05-26T03:11:26.232Z,13.52
2019-05-26T03:14:33.432Z,13.58
2019-05-26T03:17:40.954Z,13.55
2019-05-26T03:20:45.993Z,13.62
2019-05-26T03:23:52.273Z,13.44
2019-05-26T03:26:58.603Z,13.30
2019-05-26T03:30:03.447Z,13.17
2019-05-26T03:33:08.545Z,13.12
2019-05-26T03:36:13.587Z,13.14
2019-05-26T03:39:18.322Z,13.18
2019-05-26T03:42:23.053Z,13.18
2019-05-26T03:46:11.282Z,13.21
2019-05-26T03:49:16.293Z,13.23
2019-05-26T03:52:21.372Z,13.35
2019-05-26T03:55:26.099Z,13.42
2019-05-26T03:58:31.579Z,13.29
2019-05-26T04:01:36.679Z,13.19
2019-05-26T04:04:41.653Z,13.24
2019-05-26T04:07:47.106Z,13.28
2019-05-26T04:10:52.347Z,13.31
2019-05-26T04:13:58.714Z,13.35
2019-05-26T04:17:03.859Z,13.32
2019-05-26T04:20:09.063Z,13.26
2019-05-26T04:23:14.083Z,13.22
2019-05-26T04:26:18.853Z,13.27
2019-05-26T04:29:24.649Z,13.41
2019-05-26T04:32:29.471Z,13.49
2019-05-26T04:35:34.204Z,13.50
2019-05-26T04:38:39.213Z,13.55
2019-05-26T04:41:44.392Z,13.70
2019-05-26T04:44:49.243Z,13.86
2019-05-26T04:47:54.302Z,13.92
2019-05-26T04:50:59.130Z,13.93
2019-05-26T04:54:04.040Z,13.95
2019-05-26T04:57:09.234Z,14.01
2019-05-26T05:00:14.543Z,14.07
2019-05-26T05:03:19.326Z,14.13
2019-05-26T05:06:24.433Z,14.21
2019-05-26T05:09:29.223Z,14.31
2019-05-26T05:12:34.226Z,14.40
2019-05-26T05:15:39.336Z,14.36
2019-05-26T05:18:44.095Z,14.47
2019-05-26T05:21:49.036Z,14.55
2019-05-26T05:24:53.857Z,14.63
2019-05-26T05:27:58.701Z,14.74
2019-05-26T05:31:03.883Z,14.89
2019-05-26T05:34:08.633Z,14.90
2019-05-26T05:37:13.617Z,14.94
2019-05-26T05:40:19.170Z,14.83
2019-05-26T05:43:24.372Z,14.83
2019-05-26T05:46:29.289Z,14.73
2019-05-26T05:49:34.122Z,14.74
2019-05-26T05:52:39.205Z,14.81
2019-05-26T05:55:44.066Z,14.83
2019-05-26T05:58:48.830Z,14.73
2019-05-26T06:01:55.220Z,14.89
2019-05-26T06:05:00.053Z,15.09
2019-05-26T06:08:05.030Z,15.38
2019-05-26T06:11:16.722Z,15.57
2019-05-26T06:14:16.870Z,15.68
2019-05-26T06:17:21.644Z,15.67
2019-05-26T06:20:26.511Z,15.68
2019-05-26T06:23:31.251Z,15.76
2019-05-26T06:26:36.433Z,15.90
2019-05-26T06:29:56.008Z,15.83
2019-05-26T06:32:48.079Z,15.99
2019-05-26T06:35:52.952Z,15.99
2019-05-26T06:38:57.834Z,16.16
2019-05-26T06:42:03.147Z,16.24
2019-05-26T06:45:08.577Z,16.24
2019-05-26T06:48:14.907Z,16.31
2019-05-26T06:51:20.779Z,16.31
2019-05-26T06:54:25.600Z,16.44
2019-05-26T06:57:30.533Z,16.63
2019-05-26T07:00:35.267Z,16.66
2019-05-26T07:03:40.066Z,16.72
2019-05-26T07:06:46.221Z,16.71
2019-05-26T07:09:52.147Z,16.71
2019-05-26T07:12:58.076Z,17.01
2019-05-26T07:16:02.936Z,17.01
2019-05-26T07:19:07.762Z,17.28
2019-05-26T07:22:13.867Z,17.46
2019-05-26T07:25:18.770Z,17.70
2019-05-26T07:28:23.709Z,17.51
2019-05-26T07:31:29.212Z,17.51
2019-05-26T07:34:34.339Z,17.62
2019-05-26T07:37:40.491Z,17.60
2019-05-26T07:40:45.258Z,17.78
2019-05-26T07:43:50.118Z,17.91
2019-05-26T07:46:54.989Z,17.95
2019-05-26T07:49:59.852Z,18.26
2019-05-26T07:53:04.745Z,18.45
2019-05-26T07:56:09.787Z,18.62
2019-05-26T07:59:14.953Z,18.51
2019-05-26T08:02:20.029Z,18.65
2019-05-26T08:05:24.823Z,18.48
2019-05-26T08:08:29.965Z,18.56
2019-05-26T08:11:34.839Z,18.66
2019-05-26T08:14:39.687Z,18.81
2019-05-26T08:17:44.488Z,18.98
2019-05-26T08:20:49.661Z,19.19
2019-05-26T08:23:54.478Z,18.91
2019-05-26T08:26:59.270Z,19.02
2019-05-26T08:30:05.284Z,19.27
2019-05-26T08:33:10.010Z,19.47
2019-05-26T08:36:14.840Z,19.35
2019-05-26T08:39:19.652Z,19.43
2019-05-26T08:42:31.930Z,19.54
2019-05-26T08:45:31.266Z,19.85
2019-05-26T08:48:36.117Z,19.89
2019-05-26T08:51:41.908Z,20.02
2019-05-26T08:54:46.781Z,20.09
2019-05-26T08:57:51.782Z,20.11
2019-05-26T09:00:56.551Z,20.44
2019-05-26T09:04:01.358Z,20.23
2019-05-26T09:07:06.517Z,20.37
2019-05-26T09:10:13.070Z,20.35
2019-05-26T09:13:18.232Z,20.19
2019-05-26T09:16:26.290Z,20.32
2019-05-26T09:19:31.363Z,20.42
2019-05-26T09:22:36.875Z,20.46
2019-05-26T09:25:42.277Z,20.59
2019-05-26T09:28:47.327Z,20.62
2019-05-26T09:31:52.419Z,20.77
2019-05-26T09:34:57.286Z,20.94
2019-05-26T09:38:02.333Z,20.84
2019-05-26T09:41:07.256Z,21.03
2019-05-26T09:44:12.104Z,21.22
2019-05-26T09:47:16.910Z,21.14
2019-05-26T09:50:22.858Z,21.25
2019-05-26T09:53:28.687Z,21.37
2019-05-26T09:56:34.793Z,21.24
2019-05-26T09:59:39.846Z,21.56
2019-05-26T10:02:44.759Z,21.64
2019-05-26T10:05:49.596Z,21.86
2019-05-26T10:08:54.338Z,21.89
2019-05-26T10:12:00.794Z,21.87
2019-05-26T10:15:06.577Z,21.84
2019-05-26T10:18:12.714Z,21.97
2019-05-26T10:21:17.918Z,21.94
2019-05-26T10:24:22.716Z,22.10
2019-05-26T10:27:27.573Z,22.31
2019-05-26T10:30:32.692Z,22.44
2019-05-26T10:33:37.853Z,22.48
2019-05-26T10:36:42.689Z,22.38
2019-05-26T10:39:47.797Z,22.23
2019-05-26T10:42:52.523Z,22.23
2019-05-26T10:45:58.321Z,22.28
2019-05-26T10:49:03.208Z,22.37
2019-05-26T10:52:08.538Z,22.44
2019-05-26T10:55:13.420Z,22.08
2019-05-26T10:58:18.604Z,22.17
2019-05-26T11:01:23.738Z,22.33
2019-05-26T11:04:29.133Z,22.04
2019-05-26T11:07:33.942Z,21.81
2019-05-26T11:10:38.772Z,22.04
2019-05-26T11:13:43.831Z,22.14
2019-05-26T11:16:48.692Z,22.32
2019-05-26T11:19:53.604Z,22.42
2019-05-26T11:22:58.373Z,22.52
2019-05-26T11:26:03.549Z,22.23
2019-05-26T11:29:08.385Z,22.12
2019-05-26T11:32:13.523Z,22.43
2019-05-26T11:35:19.165Z,22.54
2019-05-26T11:38:24.465Z,22.55
2019-05-26T11:41:29.886Z,22.61
2019-05-26T11:44:35.103Z,22.80
2019-05-26T11:47:39.833Z,22.95
2019-05-26T11:50:44.693Z,22.98
2019-05-26T11:53:49.773Z,23.01
2019-05-26T11:56:54.557Z,23.12
2019-05-26T12:00:01.044Z,23.08
2019-05-26T12:03:06.254Z,23.19
2019-05-26T12:06:11.257Z,23.13
2019-05-26T12:09:16.076Z,23.16
2019-05-26T12:12:20.866Z,23.50
2019-05-26T12:15:26.978Z,23.76
2019-05-26T12:18:31.786Z,23.70
2019-05-26T12:21:36.949Z,23.90
2019-05-26T12:24:42.176Z,23.71
2019-05-26T12:27:47.068Z,23.62
2019-05-26T12:30:51.794Z,23.39
2019-05-26T12:33:56.586Z,23.01
2019-05-26T12:37:01.655Z,23.03
2019-05-26T12:40:07.025Z,22.90
2019-05-26T12:43:12.241Z,22.87
2019-05-26T12:46:17.081Z,23.32
2019-05-26T12:49:21.873Z,23.20
2019-05-26T12:52:27.874Z,22.97
2019-05-26T12:55:33.673Z,23.23
2019-05-26T12:58:38.534Z,23.12
2019-05-26T13:01:43.739Z,23.43
2019-05-26T13:04:48.506Z,23.17
2019-05-26T13:07:53.397Z,23.28
2019-05-26T13:10:58.231Z,23.73
2019-05-26T13:14:03.253Z,23.95
2019-05-26T13:17:08.628Z,23.70
2019-05-26T13:20:14.870Z,23.57
2019-05-26T13:23:19.801Z,23.70
2019-05-26T13:26:24.938Z,23.79
2019-05-26T13:32:33.211Z,23.94
2019-05-26T13:35:37.988Z,23.78
2019-05-26T13:38:42.790Z,24.00
2019-05-26T13:41:47.861Z,24.18
2019-05-26T13:44:52.922Z,24.16
2019-05-26T13:47:57.770Z,24.19
2019-05-26T13:51:02.725Z,24.33
2019-05-26T13:54:08.104Z,24.31
2019-05-26T13:57:12.911Z,24.27
2019-05-26T14:00:18.511Z,24.40
2019-05-26T14:03:24.279Z,24.26
2019-05-26T14:06:29.225Z,24.40
2019-05-26T14:09:34.369Z,24.74
2019-05-26T14:12:39.285Z,24.65
2019-05-26T14:15:44.107Z,24.92
2019-05-26T14:18:49.516Z,25.00
2019-05-26T14:21:54.667Z,24.89
2019-05-26T14:24:59.895Z,24.84
2019-05-26T14:28:05.258Z,24.86
2019-05-26T14:31:10.050Z,25.05
2019-05-26T14:34:14.780Z,25.18
2019-05-26T14:37:19.541Z,24.94
2019-05-26T14:40:24.414Z,25.24
2019-05-26T14:43:29.624Z,25.46
2019-05-26T14:46:34.706Z,25.48
2019-05-26T14:49:39.975Z,25.54
2019-05-26T14:52:44.841Z,25.46
2019-05-26T14:55:49.710Z,25.38
2019-05-26T14:58:54.550Z,25.34
2019-05-26T15:01:59.485Z,24.96
2019-05-26T15:05:04.941Z,25.29
2019-05-26T15:08:09.697Z,25.34
2019-05-26T15:11:14.723Z,25.43
2019-05-26T15:14:19.538Z,25.56
2019-05-26T15:17:24.855Z,25.35
2019-05-26T15:20:29.759Z,25.64
2019-05-26T15:23:34.509Z,25.68
2019-05-26T15:26:42.400Z,25.76
2019-05-26T15:29:47.216Z,25.33
2019-05-26T15:32:52.060Z,25.47
2019-05-26T15:35:56.949Z,25.13
2019-05-26T15:39:01.808Z,25.28
2019-05-26T15:42:08.502Z,25.41
2019-05-26T15:45:16.186Z,25.68
2019-05-26T15:48:20.988Z,25.49
2019-05-26T15:51:26.136Z,25.31
2019-05-26T15:54:30.988Z,25.39
2019-05-26T15:57:36.133Z,25.43
2019-05-26T16:00:41.220Z,25.60
2019-05-26T16:03:47.262Z,25.74
2019-05-26T16:06:52.364Z,26.22
2019-05-26T16:09:57.328Z,26.00
2019-05-26T16:13:02.125Z,25.91
2019-05-26T16:16:06.915Z,25.43
2019-05-26T16:19:11.814Z,25.28
2019-05-26T16:22:17.100Z,25.35
2019-05-26T16:25:22.136Z,25.38
2019-05-26T16:28:27.224Z,25.01
2019-05-26T16:31:32.275Z,25.12
2019-05-26T16:34:37.263Z,25.38
2019-05-26T16:37:42.056Z,25.51
2019-05-26T16:40:46.957Z,25.52
2019-05-26T16:43:51.841Z,25.49
2019-05-26T16:46:57.161Z,25.30
2019-05-26T16:50:01.942Z,25.33
2019-05-26T16:53:06.670Z,25.58
2019-05-26T16:56:11.573Z,25.30
2019-05-26T16:59:16.618Z,25.53
2019-05-26T17:02:21.375Z,25.24
2019-05-26T17:05:26.249Z,25.48
2019-05-26T17:08:31.207Z,25.44
2019-05-26T17:11:37.290Z,25.39
2019-05-26T17:14:42.118Z,25.53
2019-05-26T17:17:47.130Z,25.49
2019-05-26T17:20:51.941Z,25.46
2019-05-26T17:23:56.910Z,25.07
2019-05-26T17:27:01.709Z,25.02
2019-05-26T17:30:07.011Z,24.80
2019-05-26T17:33:11.979Z,24.84
2019-05-26T17:36:16.778Z,24.87
2019-05-26T17:39:22.036Z,24.74
2019-05-26T17:42:27.211Z,24.67
2019-05-26T17:45:32.513Z,24.64
2019-05-26T17:48:37.364Z,24.50
2019-05-26T17:51:42.538Z,24.37
2019-05-26T17:54:47.315Z,24.44
2019-05-26T17:57:52.191Z,24.36
2019-05-26T18:00:57.063Z,24.24
2019-05-26T18:04:01.889Z,24.03
2019-05-26T18:07:07.205Z,23.96
2019-05-26T18:10:13.223Z,23.99
2019-05-26T18:13:17.992Z,23.95
2019-05-26T18:16:22.775Z,23.67
2019-05-26T18:19:29.766Z,23.70
2019-05-26T18:22:34.495Z,23.64
2019-05-26T18:25:40.061Z,23.36
2019-05-26T18:28:44.998Z,23.21
2019-05-26T18:31:49.858Z,23.24
2019-05-26T18:34:54.875Z,23.03
2019-05-26T18:38:00.549Z,23.03
2019-05-26T18:41:05.588Z,23.01
2019-05-26T18:44:10.422Z,22.80
2019-05-26T18:47:15.414Z,22.75
2019-05-26T18:50:20.292Z,22.77
2019-05-26T18:53:25.097Z,22.63
2019-05-26T18:56:30.557Z,22.52
2019-05-26T18:59:35.401Z,22.46
2019-05-26T19:02:40.265Z,22.42
2019-05-26T19:05:45.094Z,22.36
2019-05-26T19:08:50.247Z,22.22
2019-05-26T19:11:55.570Z,22.18
2019-05-26T19:15:01.362Z,21.89
2019-05-26T19:18:19.440Z,21.87
2019-05-26T19:21:14.199Z,21.80
2019-05-26T19:24:18.964Z,21.76
2019-05-26T19:27:23.848Z,21.74
2019-05-26T19:30:28.914Z,21.67
2019-05-26T19:33:33.685Z,21.55
2019-05-26T19:36:38.559Z,21.40
2019-05-26T19:39:43.365Z,21.38
2019-05-26T19:42:49.444Z,21.15
2019-05-26T19:45:54.704Z,21.09
2019-05-26T19:48:59.463Z,21.07
2019-05-26T19:52:04.414Z,21.04
2019-05-26T19:55:10.207Z,21.06
2019-05-26T19:58:15.118Z,20.93
2019-05-26T20:01:19.922Z,20.87
2019-05-26T20:04:25.071Z,20.80
2019-05-26T20:07:29.986Z,20.72
2019-05-26T20:10:35.483Z,20.66
2019-05-26T20:13:40.447Z,20.54
2019-05-26T20:16:45.305Z,20.51
2019-05-26T20:19:50.214Z,20.44
2019-05-26T20:22:55.047Z,20.37
2019-05-26T20:26:00.089Z,20.33
2019-05-26T20:29:05.029Z,20.23
2019-05-26T20:32:09.972Z,20.13
2019-05-26T20:35:15.282Z,20.09
2019-05-26T20:38:20.444Z,20.03
2019-05-26T20:41:25.327Z,19.94
2019-05-26T20:44:30.652Z,19.83
2019-05-26T20:47:35.811Z,19.81
2019-05-26T20:50:40.850Z,19.75
2019-05-26T20:53:46.535Z,19.71
2019-05-26T20:56:51.630Z,19.64
2019-05-26T20:59:56.480Z,19.59
2019-05-26T21:03:01.621Z,19.47
2019-05-26T21:06:06.533Z,19.42
2019-05-26T21:09:11.768Z,19.38
2019-05-26T21:12:16.547Z,19.33
2019-05-26T21:15:21.457Z,19.24
2019-05-26T21:18:28.670Z,19.22
2019-05-26T21:21:34.168Z,19.18
2019-05-26T21:24:38.956Z,19.12
2019-05-26T21:27:43.768Z,19.07
2019-05-26T21:30:49.044Z,19.06
2019-05-26T21:33:53.894Z,18.95
2019-05-26T21:36:58.967Z,18.90
2019-05-26T21:40:04.796Z,18.85
2019-05-26T21:43:09.923Z,18.79
2019-05-26T21:46:15.033Z,18.78
2019-05-26T21:49:21.105Z,18.71
2019-05-26T21:52:25.907Z,18.67
2019-05-26T21:55:30.766Z,18.61
2019-05-26T21:58:35.528Z,18.50
2019-05-26T22:01:41.048Z,18.43
2019-05-26T22:04:46.150Z,18.36
2019-05-26T22:07:51.206Z,18.29
2019-05-26T22:10:55.948Z,18.14
2019-05-26T22:14:01.070Z,18.02
2019-05-26T22:17:06.144Z,18.00
2019-05-26T22:20:11.472Z,17.97
2019-05-26T22:23:16.593Z,17.98
2019-05-26T22:26:21.615Z,17.90
2019-05-26T22:29:26.452Z,17.66
2019-05-26T22:32:31.169Z,17.48
2019-05-26T22:35:36.566Z,17.41
2019-05-26T22:38:41.345Z,17.36
2019-05-26T22:41:46.383Z,17.36
2019-05-26T22:44:51.201Z,17.29
2019-05-26T22:47:55.926Z,17.37
2019-05-26T22:51:01.168Z,17.36
2019-05-26T22:54:05.995Z,17.31
2019-05-26T22:57:10.879Z,17.36
2019-05-26T23:00:16.100Z,17.42
2019-05-26T23:03:21.206Z,17.39
2019-05-26T23:06:25.945Z,17.40
2019-05-26T23:09:30.708Z,17.38
2019-05-26T23:12:35.502Z,17.33
2019-05-26T23:15:40.486Z,17.33
2019-05-26T23:18:46.288Z,17.35
2019-05-26T23:21:51.401Z,17.28
2019-05-26T23:24:56.153Z,17.24
2019-05-26T23:28:00.890Z,17.14
2019-05-26T23:31:06.129Z,17.07
2019-05-26T23:34:11.200Z,17.15
2019-05-26T23:37:16.271Z,17.14
2019-05-26T23:40:20.992Z,17.10
2019-05-26T23:43:26.199Z,17.10
2019-05-26T23:46:30.965Z,17.03
2019-05-26T23:49:35.996Z,16.96
2019-05-26T23:52:40.753Z,16.88
2019-05-26T23:55:45.753Z,16.90
2019-05-26T23:58:50.511Z,16.87
